createdAt,value
2018-06-28T03:01:06.647Z,90.03
2018-06-28T03:02:07.150Z,89.83
2018-06-28T03:03:06.926Z,89.45
2018-06-28T03:04:07.010Z,89.64
2018-06-28T03:05:07.949Z,89.12
2018-06-28T03:06:08.134Z,88.31
2018-06-28T03:08:07.966Z,87.83
2018-06-28T03:09:08.562Z,87.64
2018-06-28T03:10:08.671Z,88.02
2018-06-28T03:12:09.179Z,88.78
2018-06-28T03:13:10.921Z,88.59
2018-06-28T03:14:06.560Z,88.98
2018-06-28T03:15:06.560Z,88.78
2018-06-28T03:16:06.787Z,88.88
2018-06-28T03:17:06.856Z,89.17
2018-06-28T03:18:07.044Z,88.69
2018-06-28T03:19:07.265Z,89.36
2018-06-28T03:20:07.490Z,89.17
2018-06-28T03:21:07.577Z,89.07
2018-06-28T03:22:07.810Z,89.54
2018-06-28T03:23:07.931Z,89.83
2018-06-28T03:24:08.143Z,89.64
2018-06-28T03:25:08.311Z,89.54
2018-06-28T03:26:08.507Z,89.64
2018-06-28T03:27:08.731Z,89.83
2018-06-28T03:28:08.815Z,89.36
2018-06-28T03:29:08.934Z,89.17
2018-06-28T03:30:09.158Z,89.36
2018-06-28T03:31:09.414Z,89.74
2018-06-28T03:32:09.405Z,89.74
2018-06-28T03:33:09.631Z,89.93
2018-06-28T03:34:09.823Z,89.36
2018-06-28T03:35:10.072Z,88.98
2018-06-28T03:36:10.195Z,89.17
2018-06-28T03:37:10.338Z,88.78
2018-06-28T03:38:10.582Z,88.78
2018-06-28T03:39:10.764Z,88.78
2018-06-28T03:40:10.909Z,88.88
2018-06-28T03:41:11.096Z,88.98
2018-06-28T03:42:11.261Z,88.88
2018-06-28T03:43:11.464Z,88.98
2018-06-28T03:44:11.664Z,88.98
2018-06-28T03:45:11.815Z,88.78
2018-06-28T03:46:11.918Z,89.17
2018-06-28T03:47:12.187Z,88.78
2018-06-28T03:48:12.376Z,88.78
2018-06-28T03:49:12.534Z,88.59
2018-06-28T03:50:12.741Z,88.88
2018-06-28T03:51:12.918Z,88.98
2018-06-28T03:52:13.187Z,88.88
2018-06-28T03:53:13.378Z,89.07
2018-06-28T03:54:13.425Z,88.98
2018-06-28T03:55:13.639Z,88.59
2018-06-28T03:56:13.819Z,88.78
2018-06-28T03:57:14.047Z,89.07
2018-06-28T03:58:14.173Z,88.98
2018-06-28T03:59:14.278Z,89.26
2018-06-28T04:00:14.466Z,89.36
2018-06-28T04:01:14.787Z,89.45
2018-06-28T04:02:14.801Z,88.78
2018-06-28T04:03:14.938Z,89.45
2018-06-28T04:04:15.120Z,89.83
2018-06-28T04:05:15.223Z,89.74
2018-06-28T04:06:15.450Z,89.54
2018-06-28T04:07:15.576Z,89.45
2018-06-28T04:08:15.746Z,89.64
2018-06-28T04:09:15.951Z,89.83
2018-06-28T04:10:16.080Z,90.03
2018-06-28T04:11:16.267Z,89.74
2018-06-28T04:12:16.449Z,89.07
2018-06-28T04:13:16.672Z,89.40
2018-06-28T04:14:17.187Z,89.21
2018-06-28T04:15:17.594Z,89.97
2018-06-28T04:16:17.179Z,89.69
2018-06-28T04:17:17.431Z,89.88
2018-06-28T04:18:17.677Z,89.50
2018-06-28T04:19:17.683Z,89.21
2018-06-28T04:20:18.339Z,89.40
2018-06-28T04:21:18.195Z,89.31
2018-06-28T04:22:18.413Z,88.64
2018-06-28T04:23:18.751Z,89.12
2018-06-28T04:24:18.775Z,88.50
2018-06-28T04:25:18.857Z,89.02
2018-06-28T04:26:19.004Z,88.73
2018-06-28T04:27:19.117Z,88.78
2018-06-28T04:28:19.407Z,89.26
2018-06-28T04:29:19.580Z,89.88
2018-06-28T04:30:19.791Z,89.93
2018-06-28T04:31:20.100Z,90.03
2018-06-28T04:32:20.235Z,90.17
2018-06-28T04:33:20.403Z,90.55
2018-06-28T04:34:20.559Z,90.36
2018-06-28T04:35:20.688Z,90.50
2018-06-28T04:36:20.775Z,90.83
2018-06-28T04:37:21.095Z,90.36
2018-06-28T04:38:21.256Z,90.45
2018-06-28T04:39:21.402Z,89.97
2018-06-28T04:40:22.270Z,90.17
2018-06-28T04:41:21.706Z,89.88
2018-06-28T04:42:21.857Z,89.69
2018-06-28T04:43:22.019Z,89.78
2018-06-28T04:44:22.248Z,89.97
2018-06-28T04:45:22.486Z,89.31
2018-06-28T04:46:22.648Z,89.02
2018-06-28T04:47:22.727Z,88.83
2018-06-28T04:48:22.921Z,89.31
2018-06-28T04:49:23.029Z,89.31
2018-06-28T04:50:23.189Z,89.21
2018-06-28T04:51:23.461Z,89.40
2018-06-28T04:52:24.010Z,89.21
2018-06-28T04:53:23.842Z,89.12
2018-06-28T04:54:24.089Z,89.06
2018-06-28T04:55:24.314Z,89.35
2018-06-28T04:56:24.443Z,89.45
2018-06-28T04:57:25.104Z,88.87
2018-06-28T04:58:24.742Z,88.87
2018-06-28T04:59:29.984Z,88.78
2018-06-28T05:00:25.155Z,88.68
2018-06-28T05:01:29.062Z,88.97
2018-06-28T05:06:05.444Z,89.06
2018-06-28T05:07:22.374Z,89.06
2018-06-28T05:08:17.023Z,89.16
2018-06-28T05:09:17.079Z,88.87
2018-06-28T05:10:19.598Z,89.06
2018-06-28T05:11:14.177Z,88.54
2018-06-28T05:14:18.472Z,88.06
2018-06-28T05:15:23.958Z,88.73
2018-06-28T05:23:28.004Z,86.57
2018-06-28T05:24:28.426Z,86.19
2018-06-28T05:38:40.352Z,83.17
2018-06-28T05:45:19.889Z,83.69
2018-06-28T05:58:47.382Z,81.96
2018-06-28T05:59:47.525Z,82.34
2018-06-28T06:00:52.169Z,82.24
2018-06-28T06:02:01.057Z,82.06
2018-06-28T06:02:47.749Z,82.29
2018-06-28T06:03:52.587Z,82.48
2018-06-28T06:04:46.287Z,82.57
2018-06-28T06:05:46.351Z,82.29
2018-06-28T06:06:46.437Z,82.76
2018-06-28T06:07:46.605Z,82.00
2018-06-28T06:08:46.792Z,81.52
2018-06-28T06:09:47.073Z,81.52
2018-06-28T06:10:47.090Z,81.33
2018-06-28T06:11:47.217Z,81.13
2018-06-28T06:12:47.495Z,80.99
2018-06-28T06:13:47.619Z,80.99
2018-06-28T06:14:47.818Z,80.51
2018-06-28T06:15:59.126Z,80.70
2018-06-28T06:25:22.679Z,80.16
2018-06-28T06:26:22.192Z,80.16
2018-06-28T06:31:38.059Z,79.34
2018-06-28T06:32:44.640Z,79.91
2018-06-28T06:36:19.052Z,79.76
2018-06-28T08:03:12.069Z,59.28
2018-06-28T09:21:04.919Z,53.44
2018-06-28T09:22:02.103Z,54.44
2018-06-28T09:38:41.731Z,46.05
2018-06-28T09:52:05.575Z,44.10
2018-06-28T09:52:54.389Z,44.38
2018-06-28T12:53:22.776Z,30.10
2018-06-28T12:56:51.957Z,32.55
2018-06-28T15:36:10.492Z,29.53
2018-06-28T15:53:29.507Z,32.27
2018-06-28T15:54:20.209Z,33.04
2018-06-28T15:55:21.215Z,33.22
2018-06-28T16:01:27.366Z,36.58
2018-06-28T17:11:47.089Z,40.39
2018-06-28T17:12:46.791Z,41.06
2018-06-28T17:13:47.157Z,41.36
2018-06-28T17:14:49.873Z,41.84
2018-06-28T17:15:55.652Z,41.45
2018-06-28T17:16:57.645Z,40.77
2018-06-28T17:17:57.538Z,40.77
2018-06-28T17:18:48.151Z,41.06
2018-06-28T17:19:47.734Z,41.16
2018-06-28T17:20:49.151Z,41.16
2018-06-28T17:21:48.843Z,41.26
2018-06-28T17:22:46.552Z,41.16
2018-06-28T17:23:46.626Z,40.67
2018-06-28T17:24:46.678Z,40.19
2018-06-28T17:25:49.371Z,40.58
2018-06-28T17:26:58.402Z,40.89
2018-06-28T17:27:50.294Z,40.50
2018-06-28T17:28:51.202Z,40.31
2018-06-28T17:30:00.246Z,40.31
2018-06-28T17:30:50.386Z,40.60
2018-06-28T17:41:23.231Z,41.16
2018-06-28T17:57:42.333Z,42.13
2018-06-28T17:58:42.774Z,40.56
2018-06-28T17:59:42.322Z,41.16
2018-06-28T18:00:44.595Z,41.64
2018-06-28T18:01:42.711Z,41.06
2018-06-28T18:02:44.173Z,40.09
2018-06-28T18:03:48.443Z,40.56
2018-06-28T18:04:42.715Z,40.97
2018-06-28T18:05:43.472Z,40.95
2018-06-28T18:06:43.863Z,41.84
2018-06-28T18:07:41.506Z,42.33
2018-06-28T18:08:41.372Z,41.64
2018-06-28T18:09:41.462Z,42.43
2018-06-28T18:10:42.450Z,42.23
2018-06-28T18:11:41.911Z,43.01
2018-06-28T18:12:42.120Z,42.33
2018-06-28T18:13:42.190Z,42.11
2018-06-28T18:14:42.352Z,42.60
2018-06-28T18:15:42.525Z,42.11
2018-06-28T18:16:42.805Z,42.11
2018-06-28T18:17:42.922Z,42.29
2018-06-28T18:18:43.257Z,42.48
2018-06-28T18:19:43.418Z,42.77
2018-06-28T18:20:43.912Z,42.48
2018-06-28T18:21:44.014Z,42.86
2018-06-28T18:22:44.026Z,42.96
2018-06-28T18:23:44.243Z,43.26
2018-06-28T18:24:44.512Z,43.13
2018-06-28T18:25:44.662Z,43.43
2018-06-28T18:26:44.819Z,43.16
2018-06-28T18:27:45.051Z,43.45
2018-06-28T18:28:45.216Z,43.93
2018-06-28T18:29:45.567Z,43.91
2018-06-28T18:30:45.681Z,43.91
2018-06-28T18:31:45.869Z,43.04
2018-06-28T18:32:45.989Z,43.82
2018-06-28T18:33:46.216Z,43.91
2018-06-28T18:34:47.136Z,44.10
2018-06-28T18:35:47.741Z,44.40
2018-06-28T18:36:47.023Z,44.40
2018-06-28T18:37:47.022Z,43.91
2018-06-28T18:38:47.049Z,43.82
2018-06-28T18:39:47.144Z,44.20
2018-06-28T18:40:47.263Z,44.49
2018-06-28T18:41:48.092Z,44.49
2018-06-28T18:42:47.709Z,44.68
2018-06-28T18:43:47.960Z,45.07
2018-06-28T18:44:47.823Z,44.98
2018-06-28T18:45:50.594Z,45.37
2018-06-28T18:46:48.033Z,45.17
2018-06-28T18:47:48.340Z,45.47
2018-06-28T18:48:48.441Z,45.44
2018-06-28T18:49:48.576Z,46.14
2018-06-28T18:50:49.824Z,46.41
2018-06-28T18:51:49.170Z,45.64
2018-06-28T18:52:49.344Z,45.25
2018-06-28T18:53:49.494Z,45.83
2018-06-28T18:54:49.631Z,45.83
2018-06-28T18:55:49.849Z,45.25
2018-06-28T18:56:49.952Z,44.96
2018-06-28T18:57:51.531Z,44.96
2018-06-28T18:58:50.795Z,44.96
2018-06-28T18:59:50.961Z,45.34
2018-06-28T19:00:50.678Z,45.34
2018-06-28T19:01:50.922Z,45.05
2018-06-28T19:02:51.152Z,45.83
2018-06-28T19:03:51.719Z,45.73
2018-06-28T19:04:51.741Z,45.64
2018-06-28T19:05:52.426Z,45.44
2018-06-28T19:06:51.766Z,45.44
2018-06-28T19:07:52.037Z,45.92
2018-06-28T19:08:52.076Z,45.25
2018-06-28T19:09:52.584Z,45.83
2018-06-28T19:10:52.724Z,45.54
2018-06-28T19:11:52.609Z,45.51
2018-06-28T19:12:52.946Z,46.39
2018-06-28T19:13:52.917Z,45.71
2018-06-28T19:14:53.162Z,46.31
2018-06-28T19:15:53.367Z,46.19
2018-06-28T19:16:53.516Z,46.09
2018-06-28T19:17:53.686Z,45.73
2018-06-28T19:18:53.987Z,45.71
2018-06-28T19:19:54.035Z,45.83
2018-06-28T19:20:54.271Z,45.71
2018-06-28T19:21:54.423Z,45.71
2018-06-28T19:22:54.604Z,45.61
2018-06-28T19:23:54.799Z,45.90
2018-06-28T19:24:54.928Z,45.71
2018-06-28T19:25:55.205Z,46.00
2018-06-28T19:26:55.347Z,46.09
2018-06-28T19:27:55.535Z,46.09
2018-06-28T19:28:55.697Z,46.19
2018-06-28T19:29:55.870Z,46.48
2018-06-28T19:30:56.110Z,46.58
2018-06-28T19:31:56.414Z,46.67
2018-06-28T19:32:56.517Z,46.39
2018-06-28T19:33:56.641Z,46.48
2018-06-28T19:34:56.794Z,46.29
2018-06-28T19:35:56.972Z,45.90
2018-06-28T19:36:57.600Z,47.36
2018-06-28T19:37:57.405Z,47.16
2018-06-28T19:38:57.833Z,47.16
2018-06-28T19:39:58.767Z,47.26
2018-06-28T19:40:58.127Z,46.67
2018-06-28T19:41:59.638Z,45.71
2018-06-28T19:42:58.717Z,46.19
2018-06-28T19:43:59.337Z,46.09
2018-06-28T19:44:58.775Z,47.55
2018-06-28T19:45:59.650Z,46.67
2018-06-28T19:47:00.071Z,46.58
2018-06-28T19:47:59.501Z,46.39
2018-06-28T19:48:59.913Z,47.26
2018-06-28T19:49:59.815Z,47.36
2018-06-28T19:51:00.964Z,47.45
2018-06-28T19:52:01.881Z,47.45
2018-06-28T19:54:46.856Z,47.84
2018-06-28T19:55:05.882Z,47.24
2018-06-28T19:56:26.226Z,47.33
2018-06-28T19:57:05.662Z,47.24
2018-06-28T19:58:05.607Z,47.52
2018-06-28T19:59:04.325Z,47.52
2018-06-28T20:00:01.713Z,47.52
2018-06-28T20:01:01.907Z,47.91
2018-06-28T20:02:01.893Z,47.43
2018-06-28T20:03:02.215Z,47.72
2018-06-28T20:04:02.465Z,47.91
2018-06-28T20:05:02.568Z,47.91
2018-06-28T20:06:02.832Z,47.62
2018-06-28T20:07:02.962Z,47.24
2018-06-28T20:08:03.021Z,47.72
2018-06-28T20:09:05.091Z,47.79
2018-06-28T20:10:04.240Z,48.20
2018-06-28T20:11:03.946Z,48.79
2018-06-28T20:12:04.148Z,49.05
2018-06-28T20:13:04.126Z,48.18
2018-06-28T20:14:11.891Z,48.86
2018-06-28T20:15:06.042Z,48.95
2018-06-28T20:16:04.685Z,49.15
2018-06-28T20:17:04.851Z,49.05
2018-06-28T20:18:05.016Z,49.34
2018-06-28T20:19:16.236Z,49.73
2018-06-28T20:22:13.130Z,49.92
2018-06-28T20:23:17.831Z,49.90
2018-06-28T20:24:33.440Z,49.22
2018-06-28T20:25:17.126Z,49.80
2018-06-28T20:26:15.893Z,50.09
2018-06-28T20:28:19.159Z,50.09
2018-06-28T20:30:16.547Z,50.96
2018-06-28T20:31:17.501Z,50.96
2018-06-28T20:32:14.375Z,50.84
2018-06-28T20:33:15.674Z,51.03
2018-06-28T20:37:32.262Z,51.51
2018-06-28T20:38:31.576Z,51.90
2018-06-28T20:39:30.869Z,52.39
2018-06-28T20:42:23.001Z,52.29
2018-06-28T20:44:03.915Z,52.87
2018-06-28T20:45:38.957Z,52.29
2018-06-28T20:48:07.827Z,52.48
2018-06-28T20:50:10.845Z,53.83
2018-06-28T20:51:10.063Z,54.13
2018-06-28T20:52:12.562Z,54.03
2018-06-28T20:53:11.904Z,54.10
2018-06-28T20:54:08.825Z,54.00
2018-06-28T20:55:11.559Z,54.32
2018-06-28T20:56:10.289Z,54.32
2018-06-28T20:57:08.740Z,54.49
2018-06-28T20:58:09.816Z,54.77
2018-06-28T20:59:09.712Z,55.16
2018-06-28T21:01:10.610Z,55.55
2018-06-28T21:02:11.183Z,55.16
2018-06-28T21:03:09.710Z,55.45
2018-06-28T21:04:10.136Z,55.35
2018-06-28T21:05:12.127Z,55.74
2018-06-28T21:06:10.930Z,56.20
2018-06-28T21:07:14.372Z,56.22
2018-06-28T21:08:11.870Z,56.58
2018-06-28T21:09:13.700Z,56.96
2018-06-28T21:10:11.823Z,57.93
2018-06-28T21:11:11.728Z,58.32
2018-06-28T21:12:14.581Z,58.42
2018-06-28T21:13:10.652Z,59.00
2018-06-28T21:14:09.247Z,59.45
2018-06-28T21:15:09.418Z,59.25
2018-06-28T21:16:09.528Z,59.16
2018-06-28T21:17:09.795Z,59.25
2018-06-28T21:18:09.826Z,59.25
2018-06-28T21:19:10.135Z,60.13
2018-06-28T21:20:11.247Z,59.83
2018-06-28T21:21:10.585Z,60.13
2018-06-28T21:22:10.687Z,60.03
2018-06-28T21:23:10.953Z,59.42
2018-06-28T21:24:11.002Z,59.13
2018-06-28T21:25:11.216Z,59.61
2018-06-28T21:26:11.479Z,58.94
2018-06-28T21:27:11.678Z,59.03
2018-06-28T21:28:11.852Z,59.13
2018-06-28T21:29:12.100Z,59.23
2018-06-28T21:30:12.232Z,59.80
2018-06-28T21:31:12.619Z,59.90
2018-06-28T21:32:12.741Z,59.80
2018-06-28T21:33:12.995Z,60.38
2018-06-28T21:34:13.185Z,60.77
2018-06-28T21:35:13.339Z,60.10
2018-06-28T21:36:13.480Z,60.93
2018-06-28T21:37:13.671Z,60.74
2018-06-28T21:38:13.764Z,60.64
2018-06-28T21:39:14.041Z,61.22
2018-06-28T21:40:14.128Z,61.41
2018-06-28T21:41:14.279Z,60.83
2018-06-28T21:42:14.615Z,61.41
2018-06-28T21:43:14.753Z,61.41
2018-06-28T21:44:14.919Z,61.32
2018-06-28T21:45:15.096Z,61.41
2018-06-28T21:46:15.256Z,61.99
2018-06-28T21:47:15.450Z,62.06
2018-06-28T21:48:15.579Z,62.06
2018-06-28T21:49:15.773Z,63.34
